createdAt,value
2023-02-21T00:00:16.695Z,1005.86
2023-02-21T00:01:16.696Z,1006.10
2023-02-21T00:02:16.741Z,1006.00
2023-02-21T00:03:16.655Z,1005.94
2023-02-21T00:04:16.643Z,1005.87
2023-02-21T00:05:16.653Z,1005.96
2023-02-21T00:06:16.644Z,1005.90
2023-02-21T00:07:16.613Z,1006.00
2023-02-21T00:08:16.585Z,1006.05
2023-02-21T00:09:16.571Z,1005.98
2023-02-21T00:10:16.560Z,1005.93
2023-02-21T00:11:16.753Z,1005.95
2023-02-21T00:12:16.522Z,1005.85
2023-02-21T00:13:16.522Z,1005.94
2023-02-21T00:14:16.507Z,1005.91
2023-02-21T00:15:16.508Z,1005.93
2023-02-21T00:16:16.511Z,1005.83
2023-02-21T00:17:16.536Z,1006.00
2023-02-21T00:18:16.449Z,1005.87
2023-02-21T00:19:16.467Z,1005.95
2023-02-21T00:20:18.367Z,1006.09
2023-02-21T00:21:16.463Z,1005.83
2023-02-21T00:22:16.393Z,1005.99
2023-02-21T00:23:16.424Z,1005.92
2023-02-21T00:24:16.381Z,1006.07
2023-02-21T00:25:16.375Z,1005.90
2023-02-21T00:26:16.356Z,1005.92
2023-02-21T00:27:16.342Z,1005.92
2023-02-21T00:28:16.334Z,1005.85
2023-02-21T00:29:16.332Z,1005.93
2023-02-21T00:30:16.351Z,1005.92
2023-02-21T00:31:16.644Z,1005.72
2023-02-21T00:32:16.297Z,1005.80
2023-02-21T00:33:16.293Z,1005.76
2023-02-21T00:34:16.259Z,1005.83
2023-02-21T00:35:16.271Z,1005.84
2023-02-21T00:36:16.219Z,1005.80
2023-02-21T00:37:16.224Z,1005.80
2023-02-21T00:38:16.204Z,1005.91
2023-02-21T00:39:16.190Z,1005.80
2023-02-21T00:40:16.192Z,1006.03
2023-02-21T00:41:16.438Z,1005.85
2023-02-21T00:42:16.153Z,1005.87
2023-02-21T00:43:16.130Z,1005.80
2023-02-21T00:44:16.112Z,1005.84
2023-02-21T00:45:16.098Z,1005.87
2023-02-21T00:46:16.154Z,1005.85
2023-02-21T00:47:16.082Z,1006.13
2023-02-21T00:48:16.058Z,1005.70
2023-02-21T00:49:16.063Z,1005.90
2023-02-21T00:50:16.051Z,1005.78
2023-02-21T00:51:16.406Z,1005.73
2023-02-21T00:52:16.025Z,1005.81
2023-02-21T00:53:16.012Z,1005.58
2023-02-21T00:54:15.988Z,1005.67
2023-02-21T00:55:15.987Z,1005.69
2023-02-21T00:56:15.959Z,1005.75
2023-02-21T00:57:15.950Z,1005.59
2023-02-21T00:58:15.947Z,1005.54
2023-02-21T00:59:15.928Z,1005.69
2023-02-21T01:00:15.922Z,1005.63
2023-02-21T01:01:16.340Z,1005.56
2023-02-21T01:02:15.884Z,1005.61
2023-02-21T01:03:15.877Z,1005.64
2023-02-21T01:04:15.899Z,1005.56
2023-02-21T01:05:15.880Z,1005.58
2023-02-21T01:06:15.914Z,1005.64
2023-02-21T01:07:15.828Z,1005.56
2023-02-21T01:08:15.834Z,1005.55
2023-02-21T01:09:15.808Z,1005.54
2023-02-21T01:10:15.784Z,1005.70
2023-02-21T01:11:16.015Z,1005.54
2023-02-21T01:12:15.800Z,1005.46
2023-02-21T01:13:15.782Z,1005.57
2023-02-21T01:14:15.736Z,1005.51
2023-02-21T01:15:15.790Z,1005.71
2023-02-21T01:16:15.788Z,1005.49
2023-02-21T01:17:15.703Z,1005.53
2023-02-21T01:18:15.687Z,1005.45
2023-02-21T01:19:15.682Z,1005.52
2023-02-21T01:20:15.687Z,1005.46
2023-02-21T01:21:15.901Z,1005.95
2023-02-21T01:22:15.689Z,1005.43
2023-02-21T01:23:15.621Z,1005.46
2023-02-21T01:24:15.631Z,1005.67
2023-02-21T01:25:15.597Z,1005.53
2023-02-21T01:26:15.598Z,1005.52
2023-02-21T01:27:15.581Z,1005.66
2023-02-21T01:28:15.581Z,1005.48
2023-02-21T01:29:15.551Z,1005.42
2023-02-21T01:30:15.581Z,1005.53
2023-02-21T01:31:15.904Z,1005.48
2023-02-21T01:32:15.592Z,1005.45
2023-02-21T01:33:15.500Z,1005.62
2023-02-21T01:34:15.500Z,1005.58
2023-02-21T01:35:15.480Z,1005.38
2023-02-21T01:36:15.482Z,1005.39
2023-02-21T01:37:15.465Z,1005.55
2023-02-21T01:38:15.441Z,1005.44
2023-02-21T01:39:15.433Z,1005.64
2023-02-21T01:40:15.430Z,1005.51
2023-02-21T01:41:15.744Z,1005.41
2023-02-21T01:42:15.388Z,1005.50
2023-02-21T01:43:15.360Z,1005.38
2023-02-21T01:44:15.366Z,1005.32
2023-02-21T01:45:15.359Z,1005.57
2023-02-21T01:46:15.398Z,1005.35
2023-02-21T01:47:15.320Z,1005.30
2023-02-21T01:48:15.295Z,1005.40
2023-02-21T01:49:15.286Z,1005.35
2023-02-21T01:50:15.288Z,1005.24
2023-02-21T01:51:15.586Z,1005.29
2023-02-21T01:52:15.261Z,1005.30
2023-02-21T01:53:15.248Z,1005.37
2023-02-21T01:54:15.229Z,1005.56
2023-02-21T01:55:15.219Z,1005.26
2023-02-21T01:56:15.215Z,1005.50
2023-02-21T01:57:15.191Z,1005.34
2023-02-21T01:58:15.176Z,1005.45
2023-02-21T01:59:15.238Z,1005.59
2023-02-21T02:00:15.164Z,1005.32
2023-02-21T02:01:15.514Z,1005.40
2023-02-21T02:02:15.141Z,1005.26
2023-02-21T02:03:15.115Z,1005.35
2023-02-21T02:04:15.159Z,1005.54
2023-02-21T02:05:15.076Z,1005.33
2023-02-21T02:06:15.089Z,1005.36
2023-02-21T02:07:15.065Z,1005.42
2023-02-21T02:08:15.057Z,1005.13
2023-02-21T02:09:15.051Z,1005.34
2023-02-21T02:10:15.018Z,1005.20
2023-02-21T02:11:15.421Z,1005.43
2023-02-21T02:12:15.016Z,1005.81
2023-02-21T02:13:14.996Z,1005.37
2023-02-21T02:14:14.980Z,1005.23
2023-02-21T02:15:14.948Z,1005.20
2023-02-21T02:16:15.008Z,1005.41
2023-02-21T02:17:16.586Z,1005.18
2023-02-21T02:18:14.919Z,1005.44
2023-02-21T02:19:14.949Z,1005.14
2023-02-21T02:20:14.887Z,1005.21
2023-02-21T02:21:15.205Z,1005.14
2023-02-21T02:22:14.884Z,1005.14
2023-02-21T02:23:14.856Z,1005.28
2023-02-21T02:24:14.856Z,1005.30
2023-02-21T02:25:14.830Z,1005.18
2023-02-21T02:26:14.840Z,1005.15
2023-02-21T02:27:14.811Z,1005.30
2023-02-21T02:28:14.815Z,1005.43
2023-02-21T02:29:14.775Z,1005.12
2023-02-21T02:30:21.979Z,1005.25
2023-02-21T02:31:15.213Z,1005.11
2023-02-21T02:32:14.793Z,1005.30
2023-02-21T02:33:14.721Z,1005.28
2023-02-21T02:34:14.738Z,1005.38
2023-02-21T02:35:14.726Z,1005.20
2023-02-21T02:36:14.702Z,1005.13
2023-02-21T02:37:14.672Z,1005.04
2023-02-21T02:38:14.674Z,1005.07
2023-02-21T02:39:14.653Z,1005.12
2023-02-21T02:40:14.641Z,1005.10
2023-02-21T02:41:14.879Z,1005.04
2023-02-21T02:42:14.634Z,1004.99
2023-02-21T02:43:14.606Z,1005.03
2023-02-21T02:44:14.592Z,1005.16
2023-02-21T02:45:14.570Z,1005.02
2023-02-21T02:46:14.601Z,1005.10
2023-02-21T02:47:14.541Z,1005.07
2023-02-21T02:48:14.556Z,1005.09
2023-02-21T02:49:14.553Z,1005.17
2023-02-21T02:50:14.529Z,1005.18
2023-02-21T02:51:14.787Z,1005.69
2023-02-21T02:52:14.498Z,1005.32
2023-02-21T02:53:14.484Z,1004.95
2023-02-21T02:54:14.449Z,1005.29
2023-02-21T02:55:14.441Z,1005.12
2023-02-21T02:56:14.438Z,1005.06
2023-02-21T02:57:14.430Z,1005.34
2023-02-21T02:58:14.400Z,1005.02
2023-02-21T02:59:14.407Z,1004.93
2023-02-21T03:00:14.401Z,1005.13
2023-02-21T03:01:14.751Z,1005.07
2023-02-21T03:02:14.363Z,1005.20
2023-02-21T03:03:14.398Z,1005.08
2023-02-21T03:04:14.326Z,1005.10
2023-02-21T03:05:14.331Z,1005.31
2023-02-21T03:06:14.298Z,1005.15
2023-02-21T03:07:14.317Z,1005.28
2023-02-21T03:08:14.278Z,1005.22
2023-02-21T03:09:14.258Z,1005.20
2023-02-21T03:10:14.266Z,1005.35
2023-02-21T03:11:14.561Z,1005.13
2023-02-21T03:12:14.228Z,1005.40
2023-02-21T03:13:14.244Z,1004.99
2023-02-21T03:14:14.205Z,1005.10
2023-02-21T03:15:14.190Z,1004.97
2023-02-21T03:16:14.271Z,1005.20
2023-02-21T03:17:14.161Z,1005.21
2023-02-21T03:18:14.150Z,1004.97
2023-02-21T03:19:14.141Z,1005.24
2023-02-21T03:20:14.132Z,1005.41
2023-02-21T03:21:14.400Z,1005.08
2023-02-21T03:22:14.110Z,1005.07
2023-02-21T03:23:14.100Z,1005.28
2023-02-21T03:24:14.081Z,1005.52
2023-02-21T03:25:14.059Z,1005.28
2023-02-21T03:26:14.063Z,1005.46
2023-02-21T03:27:14.044Z,1005.19
2023-02-21T03:28:14.047Z,1005.08
2023-02-21T03:29:14.014Z,1005.11
2023-02-21T03:30:14.060Z,1005.18
2023-02-21T03:31:14.409Z,1005.21
2023-02-21T03:32:14.005Z,1005.12
2023-02-21T03:33:13.941Z,1005.19
2023-02-21T03:34:13.971Z,1005.09
2023-02-21T03:35:13.944Z,1005.26
2023-02-21T03:36:13.934Z,1005.10
2023-02-21T03:37:13.913Z,1005.44
2023-02-21T03:38:13.896Z,1005.15
2023-02-21T03:39:13.870Z,1005.15
2023-02-21T03:40:13.937Z,1005.44
2023-02-21T03:41:14.118Z,1005.27
2023-02-21T03:42:13.839Z,1005.19
2023-02-21T03:43:13.833Z,1005.36
2023-02-21T03:44:13.825Z,1005.37
2023-02-21T03:45:13.813Z,1005.36
2023-02-21T03:46:13.821Z,1005.06
2023-02-21T03:47:13.772Z,1005.09
2023-02-21T03:48:17.676Z,1005.00
2023-02-21T03:49:14.753Z,1005.30
2023-02-21T03:50:13.731Z,1005.03
2023-02-21T03:51:14.059Z,1005.35
2023-02-21T03:52:13.732Z,1005.26
2023-02-21T03:53:13.691Z,1005.10
2023-02-21T03:54:13.681Z,1005.32
2023-02-21T03:55:13.667Z,1005.20
2023-02-21T03:56:13.671Z,1005.18
2023-02-21T03:57:13.640Z,1005.22
2023-02-21T03:58:13.656Z,1005.41
2023-02-21T03:59:13.698Z,1005.23
2023-02-21T04:00:13.651Z,1005.33
2023-02-21T04:01:14.075Z,1005.26
2023-02-21T04:02:13.618Z,1005.36
2023-02-21T04:03:13.578Z,1005.28
2023-02-21T04:04:13.580Z,1005.36
2023-02-21T04:05:13.562Z,1005.43
2023-02-21T04:06:13.560Z,1005.45
2023-02-21T04:07:13.528Z,1005.68
2023-02-21T04:08:13.511Z,1005.45
2023-02-21T04:09:13.490Z,1005.50
2023-02-21T04:10:13.501Z,1005.60
2023-02-21T04:11:13.816Z,1005.57
2023-02-21T04:12:13.465Z,1005.48
2023-02-21T04:13:13.437Z,1005.75
2023-02-21T04:14:13.441Z,1005.49
2023-02-21T04:15:13.430Z,1005.47
2023-02-21T04:16:13.449Z,1005.47
2023-02-21T04:17:13.416Z,1005.44
2023-02-21T04:18:13.386Z,1005.57
2023-02-21T04:19:13.383Z,1005.67
2023-02-21T04:20:13.365Z,1005.54
2023-02-21T04:21:13.685Z,1005.53
2023-02-21T04:22:13.350Z,1005.52
2023-02-21T04:23:13.341Z,1005.55
2023-02-21T04:24:13.319Z,1005.52
2023-02-21T04:25:13.275Z,1005.63
2023-02-21T04:26:13.291Z,1005.57
2023-02-21T04:27:13.256Z,1005.48
2023-02-21T04:28:13.266Z,1005.55
2023-02-21T04:29:13.236Z,1005.40
2023-02-21T04:30:13.390Z,1005.39
2023-02-21T04:31:14.503Z,1005.46
2023-02-21T04:32:15.040Z,1005.42
2023-02-21T04:33:13.200Z,1005.43
2023-02-21T04:34:13.197Z,1005.62
2023-02-21T04:35:13.159Z,1005.52
2023-02-21T04:36:13.171Z,1005.49
2023-02-21T04:37:13.151Z,1005.51
2023-02-21T04:38:13.129Z,1005.43
2023-02-21T04:39:13.107Z,1005.57
2023-02-21T04:40:13.090Z,1005.53
2023-02-21T04:41:13.380Z,1005.50
2023-02-21T04:42:13.086Z,1005.49
2023-02-21T04:43:13.048Z,1005.61
2023-02-21T04:44:13.058Z,1005.70
2023-02-21T04:45:13.041Z,1005.67
2023-02-21T04:46:13.034Z,1005.58
2023-02-21T04:47:13.001Z,1005.82
2023-02-21T04:48:13.002Z,1005.48
2023-02-21T04:49:12.985Z,1005.46
2023-02-21T04:50:12.992Z,1005.48
2023-02-21T04:51:15.987Z,1005.58
2023-02-21T04:52:12.928Z,1005.55
2023-02-21T04:53:12.949Z,1005.50
2023-02-21T04:54:14.107Z,1005.54
2023-02-21T04:55:12.899Z,1005.49
2023-02-21T04:56:13.018Z,1005.46
2023-02-21T04:57:12.868Z,1005.49
2023-02-21T04:58:12.879Z,1005.59
2023-02-21T04:59:12.869Z,1005.50
2023-02-21T05:00:12.849Z,1005.52
2023-02-21T05:01:13.223Z,1005.49
2023-02-21T05:02:12.828Z,1005.52
2023-02-21T05:03:12.811Z,1005.54
2023-02-21T05:04:12.847Z,1005.59
2023-02-21T05:05:12.840Z,1005.61
2023-02-21T05:06:12.763Z,1005.50
2023-02-21T05:07:12.738Z,1005.51
2023-02-21T05:08:12.742Z,1005.50
2023-02-21T05:09:12.735Z,1005.43
2023-02-21T05:10:12.743Z,1005.47
2023-02-21T05:11:13.081Z,1005.46
2023-02-21T05:12:12.695Z,1005.67
2023-02-21T05:13:12.676Z,1005.55
2023-02-21T05:14:12.662Z,1005.58
2023-02-21T05:15:12.661Z,1005.48
2023-02-21T05:16:12.665Z,1005.57
2023-02-21T05:17:12.608Z,1005.60
2023-02-21T05:18:12.600Z,1005.53
2023-02-21T05:19:12.590Z,1005.56
2023-02-21T05:20:12.581Z,1005.57
2023-02-21T05:21:12.792Z,1005.54
2023-02-21T05:22:12.577Z,1005.50
2023-02-21T05:23:14.005Z,1005.58
2023-02-21T05:24:12.518Z,1005.65
2023-02-21T05:25:12.508Z,1005.60
2023-02-21T05:26:12.489Z,1005.60
2023-02-21T05:27:12.511Z,1005.68
2023-02-21T05:28:12.486Z,1005.73
2023-02-21T05:29:12.474Z,1005.62
2023-02-21T05:30:12.538Z,1005.64
2023-02-21T05:31:12.498Z,1005.51
2023-02-21T05:32:12.464Z,1005.63
2023-02-21T05:33:12.407Z,1005.55
2023-02-21T05:34:12.401Z,1005.65
2023-02-21T05:35:12.400Z,1005.54
2023-02-21T05:36:12.387Z,1005.77
2023-02-21T05:37:12.368Z,1005.59
2023-02-21T05:38:12.342Z,1005.65
2023-02-21T05:39:12.397Z,1005.54
2023-02-21T05:40:12.336Z,1005.66
2023-02-21T05:41:12.551Z,1005.68
2023-02-21T05:42:12.291Z,1005.61
2023-02-21T05:43:12.289Z,1005.67
2023-02-21T05:44:12.273Z,1005.86
2023-02-21T05:45:12.251Z,1005.61
2023-02-21T05:46:12.257Z,1005.64
2023-02-21T05:47:12.254Z,1005.80
2023-02-21T05:48:12.222Z,1005.71
2023-02-21T05:49:12.203Z,1005.56
2023-02-21T05:50:12.199Z,1005.88
2023-02-21T05:51:12.462Z,1005.76
2023-02-21T05:52:12.173Z,1005.75
2023-02-21T05:53:12.184Z,1005.70
2023-02-21T05:54:12.171Z,1005.84
2023-02-21T05:55:12.133Z,1005.95
2023-02-21T05:56:12.123Z,1005.75
2023-02-21T05:57:12.104Z,1005.81
2023-02-21T05:58:12.091Z,1006.07
2023-02-21T05:59:12.086Z,1005.83
2023-02-21T06:00:12.057Z,1005.90
2023-02-21T06:01:12.141Z,1005.92
2023-02-21T06:02:12.072Z,1005.88
2023-02-21T06:03:12.080Z,1005.92
2023-02-21T06:04:12.020Z,1005.92
2023-02-21T06:05:12.010Z,1005.95
2023-02-21T06:06:11.977Z,1006.00
2023-02-21T06:07:11.964Z,1006.11
2023-02-21T06:08:13.925Z,1006.10
2023-02-21T06:09:11.973Z,1006.05
2023-02-21T06:10:11.940Z,1006.12
2023-02-21T06:11:12.009Z,1006.09
2023-02-21T06:12:11.899Z,1006.04
2023-02-21T06:13:11.914Z,1006.15
2023-02-21T06:14:11.888Z,1006.14
2023-02-21T06:15:11.865Z,1006.07
2023-02-21T06:16:11.921Z,1006.14
2023-02-21T06:17:11.835Z,1006.07
2023-02-21T06:18:11.814Z,1006.16
2023-02-21T06:19:11.825Z,1006.08
2023-02-21T06:20:11.796Z,1006.23
2023-02-21T06:21:11.820Z,1006.32
2023-02-21T06:22:11.794Z,1006.27
2023-02-21T06:23:11.820Z,1006.14
2023-02-21T06:24:11.765Z,1006.20
2023-02-21T06:25:11.796Z,1006.23
2023-02-21T06:26:11.715Z,1006.32
2023-02-21T06:27:11.740Z,1006.18
2023-02-21T06:28:11.706Z,1006.24
2023-02-21T06:29:11.698Z,1006.37
2023-02-21T06:30:11.689Z,1006.31
2023-02-21T06:31:11.773Z,1006.42
2023-02-21T06:32:11.688Z,1006.37
2023-02-21T06:33:11.640Z,1006.36
2023-02-21T06:34:11.642Z,1006.29
2023-02-21T06:35:11.623Z,1006.33
2023-02-21T06:36:11.594Z,1006.36
2023-02-21T06:37:11.600Z,1006.40
2023-02-21T06:38:11.589Z,1006.30
2023-02-21T06:39:11.573Z,1006.37
2023-02-21T06:40:11.544Z,1006.46
2023-02-21T06:41:11.531Z,1006.43
2023-02-21T06:42:11.530Z,1006.48
2023-02-21T06:43:11.682Z,1006.57
2023-02-21T06:44:11.523Z,1006.58
2023-02-21T06:45:11.507Z,1006.63
2023-02-21T06:46:11.494Z,1006.58
2023-02-21T06:47:11.485Z,1006.63
2023-02-21T06:48:11.457Z,1006.62
2023-02-21T06:49:11.468Z,1006.59
2023-02-21T06:50:11.449Z,1006.64
2023-02-21T06:51:11.413Z,1006.76
2023-02-21T06:52:11.397Z,1006.71
2023-02-21T06:53:11.397Z,1006.76
2023-02-21T06:54:11.373Z,1006.89
2023-02-21T06:55:11.383Z,1006.81
2023-02-21T06:56:11.346Z,1006.70
2023-02-21T06:57:11.335Z,1006.78
2023-02-21T06:58:11.330Z,1006.94
2023-02-21T06:59:11.318Z,1006.90
2023-02-21T07:00:11.338Z,1006.83
2023-02-21T07:01:11.348Z,1006.81
2023-02-21T07:02:11.277Z,1006.89
2023-02-21T07:03:11.263Z,1006.82
2023-02-21T07:04:11.264Z,1006.85
2023-02-21T07:05:11.256Z,1006.87
2023-02-21T07:06:11.246Z,1006.89
2023-02-21T07:07:11.227Z,1007.02
2023-02-21T07:08:11.193Z,1006.94
2023-02-21T07:09:11.186Z,1006.94
2023-02-21T07:10:11.166Z,1006.90
2023-02-21T07:11:11.166Z,1007.07
2023-02-21T07:12:11.156Z,1007.05
2023-02-21T07:13:11.137Z,1007.05
2023-02-21T07:14:11.111Z,1007.10
2023-02-21T07:15:11.103Z,1007.02
2023-02-21T07:16:11.134Z,1007.06
2023-02-21T07:17:11.099Z,1007.07
2023-02-21T07:18:11.084Z,1007.12
2023-02-21T07:19:11.053Z,1007.15
2023-02-21T07:20:11.046Z,1007.12
2023-02-21T07:21:11.045Z,1007.14
2023-02-21T07:22:11.029Z,1007.16
2023-02-21T07:23:11.008Z,1007.14
2023-02-21T07:24:10.985Z,1007.14
2023-02-21T07:25:11.010Z,1007.07
2023-02-21T07:26:10.986Z,1007.04
2023-02-21T07:27:10.939Z,1007.30
2023-02-21T07:28:10.936Z,1007.09
2023-02-21T07:29:10.945Z,1006.93
2023-02-21T07:30:10.913Z,1007.14
2023-02-21T07:31:10.951Z,1007.15
2023-02-21T07:32:10.895Z,1006.98
2023-02-21T07:33:10.892Z,1007.03
2023-02-21T07:34:10.866Z,1007.01
2023-02-21T07:35:10.841Z,1007.00
2023-02-21T07:36:10.836Z,1007.08
2023-02-21T07:37:10.822Z,1007.07
2023-02-21T07:38:10.826Z,1007.02
2023-02-21T07:39:10.810Z,1007.12
2023-02-21T07:40:10.788Z,1007.12
2023-02-21T07:41:10.769Z,1007.16
2023-02-21T07:42:12.599Z,1007.14
2023-02-21T07:43:10.742Z,1007.28
2023-02-21T07:44:10.747Z,1007.18
2023-02-21T07:45:10.743Z,1007.18
2023-02-21T07:46:10.696Z,1007.25
2023-02-21T07:47:10.708Z,1007.36
2023-02-21T07:48:10.673Z,1007.34
2023-02-21T07:49:10.680Z,1007.32
2023-02-21T07:50:10.643Z,1007.28
2023-02-21T07:51:10.649Z,1007.50
2023-02-21T07:52:10.636Z,1007.39
2023-02-21T07:53:11.318Z,1007.38
2023-02-21T07:54:10.604Z,1007.53
2023-02-21T07:55:10.604Z,1007.35
2023-02-21T07:56:10.583Z,1007.35
2023-02-21T07:57:10.575Z,1007.42
2023-02-21T07:58:10.564Z,1007.40
2023-02-21T07:59:10.547Z,1007.38
2023-02-21T08:00:10.527Z,1007.38
2023-02-21T08:01:10.515Z,1007.27
2023-02-21T08:02:10.507Z,1007.35
2023-02-21T08:03:10.490Z,1007.25
2023-02-21T08:04:10.486Z,1007.33
2023-02-21T08:05:10.557Z,1007.32
2023-02-21T08:06:10.459Z,1007.44
2023-02-21T08:07:10.453Z,1007.63
2023-02-21T08:08:10.450Z,1007.44
2023-02-21T08:09:10.448Z,1007.46
2023-02-21T08:10:10.383Z,1007.58
2023-02-21T08:11:10.396Z,1007.46
2023-02-21T08:12:10.427Z,1007.40
2023-02-21T08:13:10.356Z,1007.52
2023-02-21T08:14:10.343Z,1007.51
2023-02-21T08:15:10.323Z,1007.41
2023-02-21T08:16:10.337Z,1007.59
2023-02-21T08:17:10.399Z,1007.61
2023-02-21T08:18:10.279Z,1007.65
2023-02-21T08:19:10.280Z,1007.62
2023-02-21T08:20:10.249Z,1007.77
2023-02-21T08:21:10.241Z,1007.59
2023-02-21T08:22:10.253Z,1007.59
2023-02-21T08:23:10.220Z,1007.69
2023-02-21T08:24:10.199Z,1007.59
2023-02-21T08:25:10.193Z,1007.49
2023-02-21T08:26:10.183Z,1007.72
2023-02-21T08:27:10.186Z,1007.54
2023-02-21T08:28:10.150Z,1007.43
2023-02-21T08:29:10.154Z,1007.55
2023-02-21T08:30:10.184Z,1007.60
2023-02-21T08:31:17.349Z,1007.60
2023-02-21T08:32:10.145Z,1007.64
2023-02-21T08:33:10.109Z,1007.65
2023-02-21T08:34:10.088Z,1007.62
2023-02-21T08:35:10.070Z,1007.74
2023-02-21T08:36:10.052Z,1007.71
2023-02-21T08:37:10.050Z,1007.72
2023-02-21T08:38:10.023Z,1007.72
2023-02-21T08:39:10.009Z,1007.74
2023-02-21T08:40:09.999Z,1007.93
2023-02-21T08:41:09.991Z,1007.85
2023-02-21T08:42:09.973Z,1007.79
2023-02-21T08:43:09.975Z,1007.76
2023-02-21T08:44:09.957Z,1007.69
2023-02-21T08:45:09.930Z,1007.86
2023-02-21T08:46:09.914Z,1007.71
2023-02-21T08:47:09.915Z,1007.61
2023-02-21T08:48:09.913Z,1007.76
2023-02-21T08:49:09.878Z,1007.79
2023-02-21T08:50:09.861Z,1007.96
2023-02-21T08:51:09.868Z,1007.86
2023-02-21T08:52:09.845Z,1007.81
2023-02-21T08:53:09.865Z,1007.77
2023-02-21T08:54:09.834Z,1007.75
2023-02-21T08:55:09.800Z,1007.71
2023-02-21T08:56:09.832Z,1007.81
2023-02-21T08:57:09.783Z,1007.93
2023-02-21T08:58:09.764Z,1007.76
2023-02-21T08:59:09.779Z,1007.92
2023-02-21T09:00:09.735Z,1007.89
2023-02-21T09:01:09.778Z,1007.84
2023-02-21T09:02:09.797Z,1007.83
2023-02-21T09:03:09.748Z,1007.93
2023-02-21T09:04:09.687Z,1007.84
2023-02-21T09:05:09.719Z,1008.06
2023-02-21T09:06:09.703Z,1007.89
2023-02-21T09:07:09.677Z,1008.06
2023-02-21T09:08:09.633Z,1008.16
2023-02-21T09:09:09.636Z,1007.89
2023-02-21T09:10:09.628Z,1007.90
2023-02-21T09:11:09.596Z,1008.04
2023-02-21T09:12:09.605Z,1008.01
2023-02-21T09:13:09.586Z,1008.02
2023-02-21T09:14:09.564Z,1008.08
2023-02-21T09:15:09.553Z,1007.93
2023-02-21T09:16:09.592Z,1008.02
2023-02-21T09:17:09.529Z,1007.92
2023-02-21T09:18:09.599Z,1007.97
2023-02-21T09:19:09.518Z,1008.02
2023-02-21T09:20:09.517Z,1007.91
2023-02-21T09:21:09.508Z,1007.93
2023-02-21T09:22:09.523Z,1008.29
2023-02-21T09:23:09.459Z,1008.25
2023-02-21T09:24:09.449Z,1008.00
2023-02-21T09:25:09.446Z,1008.01
2023-02-21T09:26:09.421Z,1008.03
2023-02-21T09:27:09.411Z,1008.09
2023-02-21T09:28:09.390Z,1008.08
2023-02-21T09:29:09.401Z,1008.16
2023-02-21T09:30:09.436Z,1008.10
2023-02-21T09:31:09.359Z,1008.08
2023-02-21T09:32:09.427Z,1008.17
2023-02-21T09:33:09.328Z,1008.09
2023-02-21T09:34:09.318Z,1008.13
2023-02-21T09:35:09.321Z,1008.12
2023-02-21T09:36:09.287Z,1008.13
2023-02-21T09:37:09.272Z,1008.20
2023-02-21T09:38:09.266Z,1008.12
2023-02-21T09:39:09.260Z,1008.16
2023-02-21T09:40:09.253Z,1008.17
2023-02-21T09:41:09.216Z,1008.19
2023-02-21T09:42:09.228Z,1008.23
2023-02-21T09:43:09.223Z,1008.12
2023-02-21T09:44:09.185Z,1008.29
2023-02-21T09:45:09.206Z,1008.24
2023-02-21T09:46:09.276Z,1008.40
2023-02-21T09:47:09.139Z,1008.36
2023-02-21T09:48:09.124Z,1008.30
2023-02-21T09:49:09.124Z,1008.27
2023-02-21T09:50:09.119Z,1008.43
2023-02-21T09:51:09.110Z,1008.19
2023-02-21T09:52:09.097Z,1008.19
2023-02-21T09:53:09.049Z,1008.34
2023-02-21T09:54:09.056Z,1008.24
2023-02-21T09:55:09.052Z,1008.22
2023-02-21T09:56:09.026Z,1008.27
2023-02-21T09:57:09.006Z,1008.26
2023-02-21T09:58:09.002Z,1008.25
2023-02-21T09:59:09.000Z,1008.19
2023-02-21T10:00:08.989Z,1008.28
2023-02-21T10:01:08.993Z,1008.21
2023-02-21T10:02:08.962Z,1008.32
2023-02-21T10:03:08.941Z,1008.30
2023-02-21T10:04:08.959Z,1008.30
2023-02-21T10:05:08.909Z,1008.22
2023-02-21T10:06:08.910Z,1008.23
2023-02-21T10:07:08.901Z,1008.28
2023-02-21T10:08:08.866Z,1008.35
2023-02-21T10:09:08.846Z,1008.37
2023-02-21T10:10:08.885Z,1008.31
2023-02-21T10:11:08.826Z,1008.41
2023-02-21T10:12:08.816Z,1008.39
2023-02-21T10:13:08.808Z,1008.35
2023-02-21T10:14:08.819Z,1008.41
2023-02-21T10:15:08.807Z,1008.47
2023-02-21T10:16:08.799Z,1008.48
2023-02-21T10:17:08.755Z,1008.54
2023-02-21T10:18:08.752Z,1008.67
2023-02-21T10:19:08.717Z,1008.54
2023-02-21T10:20:08.736Z,1008.41
2023-02-21T10:21:08.705Z,1008.41
2023-02-21T10:22:08.711Z,1008.44
2023-02-21T10:23:08.687Z,1008.54
2023-02-21T10:24:08.676Z,1008.45
2023-02-21T10:25:08.648Z,1008.42
2023-02-21T10:26:08.658Z,1008.54
2023-02-21T10:27:08.649Z,1008.57
2023-02-21T10:28:08.634Z,1008.57
2023-02-21T10:29:08.608Z,1008.60
2023-02-21T10:30:08.640Z,1008.72
2023-02-21T10:31:08.619Z,1008.50
2023-02-21T10:32:08.632Z,1008.63
2023-02-21T10:33:08.572Z,1008.89
2023-02-21T10:34:08.548Z,1008.67
2023-02-21T10:35:08.516Z,1009.10
2023-02-21T10:36:08.508Z,1008.68
2023-02-21T10:37:08.547Z,1008.85
2023-02-21T10:38:08.494Z,1008.57
2023-02-21T10:39:08.491Z,1008.97
2023-02-21T10:40:09.331Z,1008.68
2023-02-21T10:41:08.444Z,1008.49
2023-02-21T10:42:08.439Z,1008.67
2023-02-21T10:43:08.428Z,1008.59
2023-02-21T10:44:08.429Z,1008.63
2023-02-21T10:45:08.421Z,1008.66
2023-02-21T10:46:08.415Z,1008.56
2023-02-21T10:47:08.391Z,1008.62
2023-02-21T10:48:08.363Z,1008.58
2023-02-21T10:49:08.351Z,1008.71
2023-02-21T10:50:08.326Z,1008.75
2023-02-21T10:51:08.324Z,1008.85
2023-02-21T10:52:08.318Z,1008.69
2023-02-21T10:53:08.386Z,1008.80
2023-02-21T10:54:08.294Z,1008.71
2023-02-21T10:55:08.268Z,1008.74
2023-02-21T10:56:08.284Z,1008.82
2023-02-21T10:57:08.257Z,1008.84
2023-02-21T10:58:08.227Z,1008.80
2023-02-21T10:59:08.217Z,1008.73
2023-02-21T11:00:08.247Z,1008.71
2023-02-21T11:01:08.256Z,1008.69
2023-02-21T11:02:08.203Z,1008.65
2023-02-21T11:03:08.160Z,1008.70
2023-02-21T11:04:08.164Z,1008.69
2023-02-21T11:05:08.152Z,1008.73
2023-02-21T11:06:08.153Z,1008.62
2023-02-21T11:07:08.150Z,1008.67
2023-02-21T11:08:08.114Z,1008.74
2023-02-21T11:09:08.124Z,1008.64
2023-02-21T11:10:08.081Z,1008.69
2023-02-21T11:11:08.101Z,1008.69
2023-02-21T11:12:08.062Z,1008.70
2023-02-21T11:13:08.152Z,1008.61
2023-02-21T11:14:08.036Z,1008.84
2023-02-21T11:15:08.010Z,1008.59
2023-02-21T11:16:08.038Z,1008.62
2023-02-21T11:17:07.996Z,1008.68
2023-02-21T11:18:08.003Z,1008.89
2023-02-21T11:19:07.969Z,1008.83
2023-02-21T11:20:07.998Z,1008.61
2023-02-21T11:21:07.929Z,1009.03
2023-02-21T11:22:07.929Z,1008.67
2023-02-21T11:23:07.913Z,1008.71
2023-02-21T11:24:07.930Z,1008.64
2023-02-21T11:25:07.909Z,1008.89
2023-02-21T11:26:07.883Z,1009.00
2023-02-21T11:27:07.851Z,1008.73
2023-02-21T11:28:07.889Z,1008.72
2023-02-21T11:29:07.833Z,1008.72
2023-02-21T11:30:07.861Z,1008.78
2023-02-21T11:31:07.876Z,1008.66
2023-02-21T11:32:07.833Z,1008.64
2023-02-21T11:33:07.819Z,1008.72
2023-02-21T11:34:07.796Z,1008.71
2023-02-21T11:35:07.753Z,1008.57
2023-02-21T11:36:07.759Z,1008.60
2023-02-21T11:37:07.723Z,1008.70
2023-02-21T11:38:07.738Z,1008.53
2023-02-21T11:39:07.726Z,1008.78
2023-02-21T11:40:07.720Z,1008.64
2023-02-21T11:41:07.684Z,1008.94
2023-02-21T11:42:07.687Z,1008.68
2023-02-21T11:43:07.670Z,1008.68
2023-02-21T11:44:07.665Z,1008.83
2023-02-21T11:45:07.640Z,1008.75
2023-02-21T11:46:07.679Z,1008.66
2023-02-21T11:47:07.620Z,1008.65
2023-02-21T11:48:07.607Z,1008.59
2023-02-21T11:49:08.572Z,1008.60
2023-02-21T11:50:07.602Z,1008.84
2023-02-21T11:51:07.598Z,1008.72
2023-02-21T11:52:07.561Z,1008.70
2023-02-21T11:53:07.526Z,1008.66
2023-02-21T11:54:07.552Z,1008.79
2023-02-21T11:55:07.520Z,1008.73
2023-02-21T11:56:07.516Z,1008.71
2023-02-21T11:57:07.490Z,1008.67
2023-02-21T11:58:07.477Z,1008.83
2023-02-21T11:59:07.444Z,1008.82
2023-02-21T12:00:07.490Z,1008.74
2023-02-21T12:01:07.469Z,1008.71
2023-02-21T12:02:07.438Z,1008.59
2023-02-21T12:03:07.418Z,1008.72
2023-02-21T12:04:07.405Z,1008.67
2023-02-21T12:05:07.374Z,1008.63